sensor_id;sensor_type;location;lat;lon;timestamp;P1;durP1;ratioP1;P2;durP2;ratioP2
10517;SDS011;5307;42.548;22.968;2023-01-29T00:00:20;8.70;;;5.82;;
10517;SDS011;5307;42.548;22.968;2023-01-29T00:02:48;11.50;;;5.95;;
10517;SDS011;5307;42.548;22.968;2023-01-29T00:05:14;8.20;;;5.30;;
10517;SDS011;5307;42.548;22.968;2023-01-29T00:07:43;12.95;;;6.75;;
10517;SDS011;5307;42.548;22.968;2023-01-29T00:10:10;9.60;;;5.85;;
10517;SDS011;5307;42.548;22.968;2023-01-29T00:12:37;9.18;;;5.85;;
10517;SDS011;5307;42.548;22.968;2023-01-29T00:15:05;9.30;;;6.00;;
10517;SDS011;5307;42.548;22.968;2023-01-29T00:17:32;9.75;;;6.05;;
10517;SDS011;5307;42.548;22.968;2023-01-29T00:19:59;6.15;;;3.67;;
10517;SDS011;5307;42.548;22.968;2023-01-29T00:22:26;8.13;;;4.43;;
10517;SDS011;5307;42.548;22.968;2023-01-29T00:24:58;8.13;;;5.20;;
10517;SDS011;5307;42.548;22.968;2023-01-29T00:27:25;9.23;;;5.43;;
10517;SDS011;5307;42.548;22.968;2023-01-29T00:29:52;9.95;;;4.72;;
10517;SDS011;5307;42.548;22.968;2023-01-29T00:32:32;8.45;;;4.80;;
10517;SDS011;5307;42.548;22.968;2023-01-29T00:34:59;8.95;;;5.50;;
10517;SDS011;5307;42.548;22.968;2023-01-29T00:37:26;10.93;;;6.53;;
10517;SDS011;5307;42.548;22.968;2023-01-29T00:39:53;9.30;;;6.20;;
10517;SDS011;5307;42.548;22.968;2023-01-29T00:42:21;8.93;;;5.50;;
10517;SDS011;5307;42.548;22.968;2023-01-29T00:45:05;9.27;;;5.85;;
10517;SDS011;5307;42.548;22.968;2023-01-29T00:47:33;10.38;;;5.88;;
10517;SDS011;5307;42.548;22.968;2023-01-29T00:50:00;9.98;;;5.72;;
10517;SDS011;5307;42.548;22.968;2023-01-29T00:52:27;10.93;;;5.65;;
10517;SDS011;5307;42.548;22.968;2023-01-29T00:54:55;11.10;;;6.00;;
10517;SDS011;5307;42.548;22.968;2023-01-29T00:57:26;10.60;;;6.55;;
10517;SDS011;5307;42.548;22.968;2023-01-29T00:59:54;9.63;;;5.35;;
10517;SDS011;5307;42.548;22.968;2023-01-29T01:02:21;6.00;;;4.07;;
10517;SDS011;5307;42.548;22.968;2023-01-29T01:05:06;13.23;;;6.53;;
10517;SDS011;5307;42.548;22.968;2023-01-29T01:07:38;11.20;;;7.00;;
10517;SDS011;5307;42.548;22.968;2023-01-29T01:10:05;11.90;;;5.95;;
10517;SDS011;5307;42.548;22.968;2023-01-29T01:12:49;11.77;;;6.43;;
10517;SDS011;5307;42.548;22.968;2023-01-29T01:15:18;9.52;;;5.57;;
10517;SDS011;5307;42.548;22.968;2023-01-29T01:17:46;10.43;;;6.22;;
10517;SDS011;5307;42.548;22.968;2023-01-29T01:20:13;7.28;;;5.03;;
10517;SDS011;5307;42.548;22.968;2023-01-29T01:22:40;10.63;;;5.88;;
10517;SDS011;5307;42.548;22.968;2023-01-29T01:25:08;13.98;;;6.72;;
10517;SDS011;5307;42.548;22.968;2023-01-29T01:27:35;10.55;;;6.38;;
10517;SDS011;5307;42.548;22.968;2023-01-29T01:30:07;11.82;;;6.55;;
10517;SDS011;5307;42.548;22.968;2023-01-29T01:32:36;9.55;;;6.22;;
10517;SDS011;5307;42.548;22.968;2023-01-29T01:35:04;12.02;;;6.90;;
10517;SDS011;5307;42.548;22.968;2023-01-29T01:37:31;13.35;;;7.25;;
10517;SDS011;5307;42.548;22.968;2023-01-29T01:40:02;12.75;;;7.47;;
10517;SDS011;5307;42.548;22.968;2023-01-29T01:42:30;11.70;;;7.03;;
10517;SDS011;5307;42.548;22.968;2023-01-29T01:44:57;14.90;;;7.28;;
10517;SDS011;5307;42.548;22.968;2023-01-29T01:47:35;11.57;;;6.28;;
10517;SDS011;5307;42.548;22.968;2023-01-29T01:50:06;13.80;;;7.70;;
10517;SDS011;5307;42.548;22.968;2023-01-29T01:52:37;11.70;;;7.10;;
10517;SDS011;5307;42.548;22.968;2023-01-29T01:55:08;17.02;;;8.65;;
10517;SDS011;5307;42.548;22.968;2023-01-29T01:57:38;14.35;;;8.27;;
10517;SDS011;5307;42.548;22.968;2023-01-29T02:00:06;14.73;;;8.95;;
10517;SDS011;5307;42.548;22.968;2023-01-29T02:02:38;16.23;;;8.85;;
10517;SDS011;5307;42.548;22.968;2023-01-29T02:05:25;17.48;;;8.38;;
10517;SDS011;5307;42.548;22.968;2023-01-29T02:08:10;15.38;;;8.20;;
10517;SDS011;5307;42.548;22.968;2023-01-29T02:10:55;10.63;;;6.85;;
10517;SDS011;5307;42.548;22.968;2023-01-29T02:13:23;14.02;;;7.05;;
10517;SDS011;5307;42.548;22.968;2023-01-29T02:15:50;14.18;;;8.10;;
10517;SDS011;5307;42.548;22.968;2023-01-29T02:18:19;17.63;;;8.52;;
10517;SDS011;5307;42.548;22.968;2023-01-29T02:20:48;14.88;;;9.07;;
10517;SDS011;5307;42.548;22.968;2023-01-29T02:29:23;16.20;;;8.75;;
10517;SDS011;5307;42.548;22.968;2023-01-29T02:31:59;12.73;;;7.30;;
10517;SDS011;5307;42.548;22.968;2023-01-29T02:34:39;11.65;;;6.97;;
10517;SDS011;5307;42.548;22.968;2023-01-29T02:37:32;15.07;;;7.30;;
10517;SDS011;5307;42.548;22.968;2023-01-29T02:40:06;13.38;;;7.97;;
10517;SDS011;5307;42.548;22.968;2023-01-29T02:42:40;9.70;;;6.03;;
10517;SDS011;5307;42.548;22.968;2023-01-29T02:45:17;11.02;;;6.38;;
10517;SDS011;5307;42.548;22.968;2023-01-29T02:47:48;14.00;;;7.97;;
10517;SDS011;5307;42.548;22.968;2023-01-29T02:50:24;17.38;;;8.00;;
10517;SDS011;5307;42.548;22.968;2023-01-29T02:52:54;12.32;;;7.40;;
10517;SDS011;5307;42.548;22.968;2023-01-29T02:55:27;10.75;;;6.70;;
10517;SDS011;5307;42.548;22.968;2023-01-29T02:57:59;14.00;;;7.60;;
10517;SDS011;5307;42.548;22.968;2023-01-29T03:00:31;14.40;;;8.80;;
10517;SDS011;5307;42.548;22.968;2023-01-29T03:03:05;11.45;;;7.15;;
10517;SDS011;5307;42.548;22.968;2023-01-29T03:05:38;11.48;;;6.47;;
10517;SDS011;5307;42.548;22.968;2023-01-29T03:08:19;12.48;;;7.63;;
10517;SDS011;5307;42.548;22.968;2023-01-29T03:11:01;13.10;;;8.15;;
10517;SDS011;5307;42.548;22.968;2023-01-29T03:13:29;16.05;;;8.50;;
10517;SDS011;5307;42.548;22.968;2023-01-29T03:16:05;13.80;;;6.40;;
10517;SDS011;5307;42.548;22.968;2023-01-29T03:18:35;14.40;;;7.50;;
10517;SDS011;5307;42.548;22.968;2023-01-29T03:21:11;12.32;;;7.30;;
10517;SDS011;5307;42.548;22.968;2023-01-29T03:24:00;13.80;;;7.28;;
10517;SDS011;5307;42.548;22.968;2023-01-29T03:26:46;13.35;;;7.68;;
10517;SDS011;5307;42.548;22.968;2023-01-29T03:29:31;13.95;;;8.15;;
10517;SDS011;5307;42.548;22.968;2023-01-29T03:32:19;14.38;;;6.72;;
10517;SDS011;5307;42.548;22.968;2023-01-29T03:34:50;15.68;;;8.23;;
10517;SDS011;5307;42.548;22.968;2023-01-29T03:37:24;11.65;;;6.90;;
10517;SDS011;5307;42.548;22.968;2023-01-29T03:39:57;13.30;;;7.55;;
10517;SDS011;5307;42.548;22.968;2023-01-29T03:42:25;12.90;;;7.90;;
10517;SDS011;5307;42.548;22.968;2023-01-29T03:44:56;10.63;;;6.93;;
10517;SDS011;5307;42.548;22.968;2023-01-29T03:47:35;11.40;;;6.47;;
10517;SDS011;5307;42.548;22.968;2023-01-29T03:50:10;8.73;;;6.68;;
10517;SDS011;5307;42.548;22.968;2023-01-29T03:52:48;9.95;;;5.65;;
10517;SDS011;5307;42.548;22.968;2023-01-29T03:55:22;10.57;;;6.63;;
10517;SDS011;5307;42.548;22.968;2023-01-29T03:57:54;11.35;;;6.10;;
10517;SDS011;5307;42.548;22.968;2023-01-29T04:00:27;17.35;;;8.20;;
10517;SDS011;5307;42.548;22.968;2023-01-29T04:03:00;12.98;;;6.57;;
10517;SDS011;5307;42.548;22.968;2023-01-29T04:05:35;23.15;;;10.65;;
10517;SDS011;5307;42.548;22.968;2023-01-29T04:08:09;16.48;;;9.35;;
10517;SDS011;5307;42.548;22.968;2023-01-29T04:10:44;25.75;;;12.60;;
10517;SDS011;5307;42.548;22.968;2023-01-29T04:13:14;19.35;;;11.13;;
10517;SDS011;5307;42.548;22.968;2023-01-29T04:15:44;21.67;;;10.43;;
10517;SDS011;5307;42.548;22.968;2023-01-29T04:18:16;27.23;;;14.05;;
10517;SDS011;5307;42.548;22.968;2023-01-29T04:20:42;23.38;;;11.32;;
10517;SDS011;5307;42.548;22.968;2023-01-29T04:23:18;21.05;;;10.10;;
10517;SDS011;5307;42.548;22.968;2023-01-29T04:25:47;29.52;;;13.75;;
10517;SDS011;5307;42.548;22.968;2023-01-29T04:28:21;25.08;;;9.57;;
10517;SDS011;5307;42.548;22.968;2023-01-29T04:30:52;36.65;;;17.00;;
10517;SDS011;5307;42.548;22.968;2023-01-29T04:33:28;24.92;;;11.27;;
10517;SDS011;5307;42.548;22.968;2023-01-29T04:36:14;73.15;;;28.65;;
10517;SDS011;5307;42.548;22.968;2023-01-29T04:38:52;77.72;;;28.08;;
10517;SDS011;5307;42.548;22.968;2023-01-29T04:41:29;69.43;;;28.15;;
10517;SDS011;5307;42.548;22.968;2023-01-29T04:44:01;61.05;;;25.23;;
10517;SDS011;5307;42.548;22.968;2023-01-29T04:46:36;143.48;;;49.78;;
10517;SDS011;5307;42.548;22.968;2023-01-29T04:49:17;68.57;;;27.08;;
10517;SDS011;5307;42.548;22.968;2023-01-29T04:51:55;34.17;;;16.15;;
10517;SDS011;5307;42.548;22.968;2023-01-29T04:54:28;35.53;;;15.02;;
10517;SDS011;5307;42.548;22.968;2023-01-29T04:57:04;19.88;;;10.82;;
10517;SDS011;5307;42.548;22.968;2023-01-29T04:59:38;16.25;;;8.85;;
10517;SDS011;5307;42.548;22.968;2023-01-29T05:02:08;13.77;;;8.25;;
10517;SDS011;5307;42.548;22.968;2023-01-29T05:04:38;17.75;;;9.32;;
10517;SDS011;5307;42.548;22.968;2023-01-29T05:07:08;16.52;;;8.20;;
10517;SDS011;5307;42.548;22.968;2023-01-29T05:09:39;22.98;;;11.75;;
10517;SDS011;5307;42.548;22.968;2023-01-29T05:26:50;16.88;;;9.30;;
10517;SDS011;5307;42.548;22.968;2023-01-29T05:29:35;19.25;;;10.63;;
10517;SDS011;5307;42.548;22.968;2023-01-29T05:32:02;15.65;;;9.00;;
10517;SDS011;5307;42.548;22.968;2023-01-29T05:34:30;15.57;;;8.40;;
10517;SDS011;5307;42.548;22.968;2023-01-29T05:36:57;30.65;;;12.23;;
10517;SDS011;5307;42.548;22.968;2023-01-29T05:39:23;31.02;;;13.00;;
10517;SDS011;5307;42.548;22.968;2023-01-29T05:41:52;26.08;;;12.93;;
10517;SDS011;5307;42.548;22.968;2023-01-29T05:44:18;20.95;;;11.40;;
10517;SDS011;5307;42.548;22.968;2023-01-29T05:46:45;23.60;;;12.02;;
10517;SDS011;5307;42.548;22.968;2023-01-29T05:49:12;32.38;;;14.98;;
10517;SDS011;5307;42.548;22.968;2023-01-29T05:51:39;26.48;;;14.05;;
10517;SDS011;5307;42.548;22.968;2023-01-29T05:54:05;21.60;;;11.20;;
10517;SDS011;5307;42.548;22.968;2023-01-29T05:56:32;18.90;;;11.27;;
10517;SDS011;5307;42.548;22.968;2023-01-29T05:59:00;19.42;;;11.70;;
10517;SDS011;5307;42.548;22.968;2023-01-29T06:01:27;31.55;;;15.35;;
10517;SDS011;5307;42.548;22.968;2023-01-29T06:03:54;54.13;;;23.55;;
10517;SDS011;5307;42.548;22.968;2023-01-29T06:06:21;41.53;;;20.13;;
10517;SDS011;5307;42.548;22.968;2023-01-29T06:08:48;23.98;;;12.52;;
10517;SDS011;5307;42.548;22.968;2023-01-29T06:11:15;26.15;;;13.90;;
10517;SDS011;5307;42.548;22.968;2023-01-29T06:13:43;24.45;;;14.00;;
10517;SDS011;5307;42.548;22.968;2023-01-29T06:16:12;23.65;;;13.18;;
10517;SDS011;5307;42.548;22.968;2023-01-29T06:18:39;24.52;;;14.15;;
10517;SDS011;5307;42.548;22.968;2023-01-29T06:21:06;29.50;;;15.77;;
10517;SDS011;5307;42.548;22.968;2023-01-29T06:23:35;34.30;;;16.55;;
10517;SDS011;5307;42.548;22.968;2023-01-29T06:26:02;31.50;;;16.35;;
10517;SDS011;5307;42.548;22.968;2023-01-29T06:28:30;29.98;;;15.68;;
10517;SDS011;5307;42.548;22.968;2023-01-29T06:30:57;27.98;;;15.25;;
10517;SDS011;5307;42.548;22.968;2023-01-29T06:33:26;29.77;;;16.48;;
10517;SDS011;5307;42.548;22.968;2023-01-29T06:35:55;31.73;;;16.05;;
10517;SDS011;5307;42.548;22.968;2023-01-29T06:38:23;33.90;;;17.38;;
10517;SDS011;5307;42.548;22.968;2023-01-29T06:40:50;31.08;;;17.13;;
10517;SDS011;5307;42.548;22.968;2023-01-29T06:43:17;29.80;;;17.52;;
10517;SDS011;5307;42.548;22.968;2023-01-29T06:45:47;33.10;;;18.98;;
10517;SDS011;5307;42.548;22.968;2023-01-29T06:48:14;30.35;;;16.55;;
10517;SDS011;5307;42.548;22.968;2023-01-29T06:53:19;32.70;;;18.65;;
10517;SDS011;5307;42.548;22.968;2023-01-29T06:55:49;30.23;;;19.00;;
10517;SDS011;5307;42.548;22.968;2023-01-29T06:58:17;36.08;;;19.17;;
10517;SDS011;5307;42.548;22.968;2023-01-29T07:00:44;45.00;;;24.67;;
10517;SDS011;5307;42.548;22.968;2023-01-29T07:03:11;58.80;;;30.70;;
10517;SDS011;5307;42.548;22.968;2023-01-29T07:05:38;104.45;;;38.90;;
10517;SDS011;5307;42.548;22.968;2023-01-29T07:08:06;58.50;;;27.90;;
10517;SDS011;5307;42.548;22.968;2023-01-29T07:10:33;43.28;;;22.98;;
10517;SDS011;5307;42.548;22.968;2023-01-29T07:13:00;40.42;;;20.67;;
10517;SDS011;5307;42.548;22.968;2023-01-29T07:15:27;32.78;;;19.15;;
10517;SDS011;5307;42.548;22.968;2023-01-29T07:17:54;31.92;;;18.23;;
10517;SDS011;5307;42.548;22.968;2023-01-29T07:20:22;45.00;;;19.90;;
10517;SDS011;5307;42.548;22.968;2023-01-29T07:22:49;41.60;;;19.73;;
10517;SDS011;5307;42.548;22.968;2023-01-29T07:25:18;46.75;;;23.85;;
10517;SDS011;5307;42.548;22.968;2023-01-29T07:27:45;46.25;;;22.83;;
10517;SDS011;5307;42.548;22.968;2023-01-29T07:30:12;47.75;;;23.35;;
10517;SDS011;5307;42.548;22.968;2023-01-29T07:32:39;35.25;;;19.42;;
10517;SDS011;5307;42.548;22.968;2023-01-29T07:35:06;30.48;;;16.40;;
10517;SDS011;5307;42.548;22.968;2023-01-29T07:37:34;34.05;;;18.58;;
10517;SDS011;5307;42.548;22.968;2023-01-29T07:40:01;24.80;;;13.65;;
10517;SDS011;5307;42.548;22.968;2023-01-29T07:42:37;44.72;;;19.38;;
10517;SDS011;5307;42.548;22.968;2023-01-29T07:45:06;56.05;;;21.00;;
10517;SDS011;5307;42.548;22.968;2023-01-29T07:47:34;62.35;;;21.63;;
10517;SDS011;5307;42.548;22.968;2023-01-29T07:50:01;22.52;;;9.38;;
10517;SDS011;5307;42.548;22.968;2023-01-29T07:52:28;61.58;;;24.05;;
10517;SDS011;5307;42.548;22.968;2023-01-29T07:54:56;14.45;;;8.10;;
10517;SDS011;5307;42.548;22.968;2023-01-29T07:57:23;40.13;;;17.92;;
10517;SDS011;5307;42.548;22.968;2023-01-29T07:59:51;48.40;;;21.17;;
10517;SDS011;5307;42.548;22.968;2023-01-29T08:02:18;28.05;;;11.13;;
10517;SDS011;5307;42.548;22.968;2023-01-29T08:04:45;14.73;;;6.93;;
10517;SDS011;5307;42.548;22.968;2023-01-29T08:07:12;29.58;;;12.98;;
10517;SDS011;5307;42.548;22.968;2023-01-29T08:09:39;19.98;;;8.63;;
10517;SDS011;5307;42.548;22.968;2023-01-29T08:12:05;20.90;;;9.38;;
10517;SDS011;5307;42.548;22.968;2023-01-29T08:14:32;24.98;;;9.65;;
10517;SDS011;5307;42.548;22.968;2023-01-29T08:17:00;44.63;;;14.57;;
10517;SDS011;5307;42.548;22.968;2023-01-29T08:19:27;95.90;;;30.85;;
10517;SDS011;5307;42.548;22.968;2023-01-29T08:21:54;48.95;;;18.15;;
10517;SDS011;5307;42.548;22.968;2023-01-29T08:24:21;42.67;;;14.65;;
10517;SDS011;5307;42.548;22.968;2023-01-29T08:26:47;39.92;;;14.70;;
10517;SDS011;5307;42.548;22.968;2023-01-29T08:29:14;67.50;;;29.13;;
10517;SDS011;5307;42.548;22.968;2023-01-29T08:31:41;48.83;;;20.33;;
10517;SDS011;5307;42.548;22.968;2023-01-29T08:34:09;40.28;;;15.80;;
10517;SDS011;5307;42.548;22.968;2023-01-29T08:36:36;24.48;;;10.65;;
10517;SDS011;5307;42.548;22.968;2023-01-29T08:39:03;25.25;;;11.13;;
10517;SDS011;5307;42.548;22.968;2023-01-29T08:41:29;18.02;;;8.88;;
10517;SDS011;5307;42.548;22.968;2023-01-29T08:43:56;34.05;;;14.10;;
10517;SDS011;5307;42.548;22.968;2023-01-29T08:46:24;31.05;;;11.02;;
10517;SDS011;5307;42.548;22.968;2023-01-29T08:48:51;19.55;;;8.15;;
10517;SDS011;5307;42.548;22.968;2023-01-29T08:51:20;13.20;;;6.95;;
10517;SDS011;5307;42.548;22.968;2023-01-29T08:53:49;14.23;;;6.43;;
10517;SDS011;5307;42.548;22.968;2023-01-29T08:56:16;19.95;;;9.73;;
10517;SDS011;5307;42.548;22.968;2023-01-29T08:58:43;23.98;;;11.25;;
10517;SDS011;5307;42.548;22.968;2023-01-29T09:01:10;26.83;;;13.07;;
10517;SDS011;5307;42.548;22.968;2023-01-29T09:03:39;24.42;;;10.70;;
10517;SDS011;5307;42.548;22.968;2023-01-29T09:06:08;21.05;;;10.23;;
10517;SDS011;5307;42.548;22.968;2023-01-29T09:08:37;10.70;;;6.13;;
10517;SDS011;5307;42.548;22.968;2023-01-29T09:11:04;17.50;;;8.90;;
10517;SDS011;5307;42.548;22.968;2023-01-29T09:13:31;19.52;;;9.88;;
10517;SDS011;5307;42.548;22.968;2023-01-29T09:15:59;21.23;;;10.52;;
10517;SDS011;5307;42.548;22.968;2023-01-29T09:18:27;25.55;;;9.82;;
10517;SDS011;5307;42.548;22.968;2023-01-29T09:20:54;15.38;;;9.90;;
10517;SDS011;5307;42.548;22.968;2023-01-29T09:23:21;13.75;;;8.30;;
10517;SDS011;5307;42.548;22.968;2023-01-29T09:25:50;9.93;;;6.15;;
10517;SDS011;5307;42.548;22.968;2023-01-29T09:28:16;12.40;;;6.78;;
10517;SDS011;5307;42.548;22.968;2023-01-29T09:30:43;21.83;;;12.98;;
10517;SDS011;5307;42.548;22.968;2023-01-29T09:33:10;23.77;;;13.13;;
10517;SDS011;5307;42.548;22.968;2023-01-29T09:35:38;14.65;;;7.93;;
10517;SDS011;5307;42.548;22.968;2023-01-29T09:38:06;24.58;;;12.85;;
10517;SDS011;5307;42.548;22.968;2023-01-29T09:40:34;17.05;;;8.82;;
10517;SDS011;5307;42.548;22.968;2023-01-29T09:43:17;20.77;;;11.38;;
10517;SDS011;5307;42.548;22.968;2023-01-29T09:45:49;15.23;;;9.20;;
10517;SDS011;5307;42.548;22.968;2023-01-29T09:48:21;20.70;;;11.30;;
10517;SDS011;5307;42.548;22.968;2023-01-29T09:50:52;10.80;;;4.90;;
10517;SDS011;5307;42.548;22.968;2023-01-29T09:53:23;12.07;;;7.00;;
10517;SDS011;5307;42.548;22.968;2023-01-29T09:55:57;12.63;;;5.68;;
10517;SDS011;5307;42.548;22.968;2023-01-29T09:58:31;17.67;;;8.27;;
10517;SDS011;5307;42.548;22.968;2023-01-29T10:01:05;23.90;;;10.95;;
10517;SDS011;5307;42.548;22.968;2023-01-29T10:06:40;10.85;;;7.55;;
10517;SDS011;5307;42.548;22.968;2023-01-29T10:09:34;11.63;;;7.78;;
10517;SDS011;5307;42.548;22.968;2023-01-29T10:12:27;15.13;;;8.40;;
10517;SDS011;5307;42.548;22.968;2023-01-29T10:15:15;6.47;;;4.00;;
10517;SDS011;5307;42.548;22.968;2023-01-29T10:21:33;12.75;;;7.28;;
10517;SDS011;5307;42.548;22.968;2023-01-29T10:24:12;26.33;;;12.68;;
10517;SDS011;5307;42.548;22.968;2023-01-29T10:26:49;8.15;;;4.97;;
10517;SDS011;5307;42.548;22.968;2023-01-29T10:29:18;17.90;;;7.57;;
10517;SDS011;5307;42.548;22.968;2023-01-29T10:31:49;16.83;;;9.60;;
10517;SDS011;5307;42.548;22.968;2023-01-29T10:34:22;18.05;;;9.10;;
10517;SDS011;5307;42.548;22.968;2023-01-29T10:36:53;18.02;;;8.68;;
10517;SDS011;5307;42.548;22.968;2023-01-29T10:39:21;17.85;;;9.75;;
10517;SDS011;5307;42.548;22.968;2023-01-29T10:41:56;22.92;;;12.68;;
10517;SDS011;5307;42.548;22.968;2023-01-29T10:44:33;16.48;;;10.18;;
10517;SDS011;5307;42.548;22.968;2023-01-29T10:47:16;11.52;;;6.35;;
10517;SDS011;5307;42.548;22.968;2023-01-29T10:49:58;18.98;;;10.38;;
10517;SDS011;5307;42.548;22.968;2023-01-29T10:52:38;14.52;;;7.82;;
10517;SDS011;5307;42.548;22.968;2023-01-29T10:55:19;14.85;;;8.40;;
10517;SDS011;5307;42.548;22.968;2023-01-29T10:58:00;15.90;;;8.70;;
10517;SDS011;5307;42.548;22.968;2023-01-29T11:00:36;17.58;;;9.18;;
10517;SDS011;5307;42.548;22.968;2023-01-29T11:03:13;20.88;;;10.00;;
10517;SDS011;5307;42.548;22.968;2023-01-29T11:05:43;14.25;;;7.60;;
10517;SDS011;5307;42.548;22.968;2023-01-29T11:08:20;20.63;;;10.70;;
10517;SDS011;5307;42.548;22.968;2023-01-29T11:10:56;13.15;;;6.28;;
10517;SDS011;5307;42.548;22.968;2023-01-29T11:13:31;20.80;;;11.65;;
10517;SDS011;5307;42.548;22.968;2023-01-29T11:16:03;23.85;;;12.48;;
10517;SDS011;5307;42.548;22.968;2023-01-29T11:21:18;23.42;;;13.20;;
10517;SDS011;5307;42.548;22.968;2023-01-29T11:34:17;13.98;;;8.23;;
10517;SDS011;5307;42.548;22.968;2023-01-29T11:36:48;20.65;;;11.82;;
10517;SDS011;5307;42.548;22.968;2023-01-29T11:39:26;24.23;;;11.90;;
10517;SDS011;5307;42.548;22.968;2023-01-29T11:41:55;12.15;;;6.82;;
10517;SDS011;5307;42.548;22.968;2023-01-29T11:44:28;19.27;;;10.45;;
10517;SDS011;5307;42.548;22.968;2023-01-29T11:47:10;19.10;;;9.90;;
10517;SDS011;5307;42.548;22.968;2023-01-29T11:49:46;20.45;;;11.00;;
10517;SDS011;5307;42.548;22.968;2023-01-29T11:52:21;12.70;;;6.40;;
10517;SDS011;5307;42.548;22.968;2023-01-29T11:54:51;20.30;;;9.80;;
10517;SDS011;5307;42.548;22.968;2023-01-29T11:57:22;20.60;;;11.00;;
10517;SDS011;5307;42.548;22.968;2023-01-29T11:59:53;23.50;;;11.80;;
10517;SDS011;5307;42.548;22.968;2023-01-29T12:02:25;11.60;;;6.38;;
10517;SDS011;5307;42.548;22.968;2023-01-29T12:04:58;19.13;;;10.10;;
10517;SDS011;5307;42.548;22.968;2023-01-29T12:07:28;17.40;;;8.55;;
10517;SDS011;5307;42.548;22.968;2023-01-29T12:09:56;18.02;;;10.27;;
10517;SDS011;5307;42.548;22.968;2023-01-29T12:12:38;23.85;;;11.18;;
10517;SDS011;5307;42.548;22.968;2023-01-29T12:17:56;16.98;;;9.50;;
10517;SDS011;5307;42.548;22.968;2023-01-29T12:20:32;19.60;;;9.52;;
10517;SDS011;5307;42.548;22.968;2023-01-29T12:23:10;13.50;;;7.72;;
10517;SDS011;5307;42.548;22.968;2023-01-29T12:25:48;19.88;;;9.82;;
10517;SDS011;5307;42.548;22.968;2023-01-29T12:28:23;16.08;;;9.57;;
10517;SDS011;5307;42.548;22.968;2023-01-29T12:31:05;16.75;;;8.93;;
10517;SDS011;5307;42.548;22.968;2023-01-29T12:33:45;14.90;;;8.48;;
10517;SDS011;5307;42.548;22.968;2023-01-29T12:36:20;18.92;;;9.60;;
10517;SDS011;5307;42.548;22.968;2023-01-29T12:38:51;19.10;;;11.85;;
10517;SDS011;5307;42.548;22.968;2023-01-29T12:41:23;20.60;;;10.23;;
10517;SDS011;5307;42.548;22.968;2023-01-29T12:43:56;17.75;;;10.18;;
10517;SDS011;5307;42.548;22.968;2023-01-29T12:46:28;16.17;;;9.32;;
10517;SDS011;5307;42.548;22.968;2023-01-29T12:49:09;16.67;;;9.98;;
10517;SDS011;5307;42.548;22.968;2023-01-29T12:54:33;17.20;;;9.68;;
10517;SDS011;5307;42.548;22.968;2023-01-29T12:57:06;17.77;;;8.88;;
10517;SDS011;5307;42.548;22.968;2023-01-29T12:59:36;14.02;;;8.43;;
10517;SDS011;5307;42.548;22.968;2023-01-29T13:02:12;18.58;;;8.30;;
10517;SDS011;5307;42.548;22.968;2023-01-29T13:04:58;18.23;;;10.23;;
10517;SDS011;5307;42.548;22.968;2023-01-29T13:07:32;22.48;;;11.18;;
10517;SDS011;5307;42.548;22.968;2023-01-29T13:10:06;24.80;;;13.48;;
10517;SDS011;5307;42.548;22.968;2023-01-29T13:12:51;20.23;;;10.05;;
10517;SDS011;5307;42.548;22.968;2023-01-29T13:16:08;17.60;;;7.53;;
10517;SDS011;5307;42.548;22.968;2023-01-29T13:18:42;19.52;;;9.27;;
10517;SDS011;5307;42.548;22.968;2023-01-29T13:21:14;39.10;;;16.20;;
10517;SDS011;5307;42.548;22.968;2023-01-29T13:23:45;36.28;;;15.95;;
10517;SDS011;5307;42.548;22.968;2023-01-29T13:26:18;31.00;;;16.25;;
10517;SDS011;5307;42.548;22.968;2023-01-29T13:29:01;26.48;;;13.45;;
10517;SDS011;5307;42.548;22.968;2023-01-29T13:31:30;24.35;;;13.18;;
10517;SDS011;5307;42.548;22.968;2023-01-29T13:34:07;44.03;;;20.17;;
10517;SDS011;5307;42.548;22.968;2023-01-29T13:36:40;25.55;;;13.48;;
10517;SDS011;5307;42.548;22.968;2023-01-29T13:39:16;20.15;;;10.45;;
10517;SDS011;5307;42.548;22.968;2023-01-29T13:42:14;18.40;;;10.20;;
10517;SDS011;5307;42.548;22.968;2023-01-29T13:44:45;15.90;;;8.27;;
10517;SDS011;5307;42.548;22.968;2023-01-29T13:47:19;24.48;;;13.38;;
10517;SDS011;5307;42.548;22.968;2023-01-29T13:49:52;22.15;;;12.57;;
10517;SDS011;5307;42.548;22.968;2023-01-29T13:52:23;17.75;;;10.32;;
10517;SDS011;5307;42.548;22.968;2023-01-29T13:54:58;11.23;;;6.50;;
10517;SDS011;5307;42.548;22.968;2023-01-29T14:15:13;20.27;;;12.07;;
10517;SDS011;5307;42.548;22.968;2023-01-29T14:17:54;19.35;;;11.18;;
10517;SDS011;5307;42.548;22.968;2023-01-29T14:20:26;18.17;;;9.93;;
10517;SDS011;5307;42.548;22.968;2023-01-29T14:22:58;19.90;;;10.63;;
10517;SDS011;5307;42.548;22.968;2023-01-29T14:25:28;22.33;;;12.52;;
10517;SDS011;5307;42.548;22.968;2023-01-29T14:27:58;18.75;;;10.77;;
10517;SDS011;5307;42.548;22.968;2023-01-29T14:30:29;19.73;;;11.27;;
10517;SDS011;5307;42.548;22.968;2023-01-29T14:33:00;23.48;;;12.23;;
10517;SDS011;5307;42.548;22.968;2023-01-29T14:35:28;20.55;;;11.85;;
10517;SDS011;5307;42.548;22.968;2023-01-29T14:37:59;21.65;;;11.60;;
10517;SDS011;5307;42.548;22.968;2023-01-29T14:40:30;16.00;;;9.20;;
10517;SDS011;5307;42.548;22.968;2023-01-29T14:43:02;17.50;;;10.00;;
10517;SDS011;5307;42.548;22.968;2023-01-29T14:45:32;13.48;;;8.05;;
10517;SDS011;5307;42.548;22.968;2023-01-29T14:51:05;22.30;;;11.95;;
10517;SDS011;5307;42.548;22.968;2023-01-29T14:53:47;14.93;;;7.55;;
10517;SDS011;5307;42.548;22.968;2023-01-29T14:56:23;17.80;;;9.75;;
10517;SDS011;5307;42.548;22.968;2023-01-29T14:59:16;17.30;;;9.23;;
10517;SDS011;5307;42.548;22.968;2023-01-29T15:01:47;44.03;;;15.60;;
10517;SDS011;5307;42.548;22.968;2023-01-29T15:04:36;19.13;;;9.93;;
10517;SDS011;5307;42.548;22.968;2023-01-29T15:07:11;30.45;;;15.82;;
10517;SDS011;5307;42.548;22.968;2023-01-29T15:09:46;12.77;;;7.10;;
10517;SDS011;5307;42.548;22.968;2023-01-29T15:12:20;19.77;;;11.48;;
10517;SDS011;5307;42.548;22.968;2023-01-29T15:14:55;14.73;;;7.97;;
10517;SDS011;5307;42.548;22.968;2023-01-29T15:17:35;17.95;;;10.80;;
10517;SDS011;5307;42.548;22.968;2023-01-29T15:20:26;24.48;;;12.40;;
10517;SDS011;5307;42.548;22.968;2023-01-29T15:23:01;76.03;;;31.63;;
10517;SDS011;5307;42.548;22.968;2023-01-29T15:25:51;21.00;;;11.60;;
10517;SDS011;5307;42.548;22.968;2023-01-29T15:28:20;14.98;;;7.57;;
10517;SDS011;5307;42.548;22.968;2023-01-29T15:30:51;23.73;;;11.77;;
10517;SDS011;5307;42.548;22.968;2023-01-29T15:33:21;39.17;;;19.30;;
10517;SDS011;5307;42.548;22.968;2023-01-29T15:35:48;21.95;;;11.75;;
10517;SDS011;5307;42.548;22.968;2023-01-29T15:38:21;25.52;;;14.02;;
10517;SDS011;5307;42.548;22.968;2023-01-29T15:40:50;22.92;;;13.07;;
10517;SDS011;5307;42.548;22.968;2023-01-29T15:43:36;21.45;;;10.20;;
10517;SDS011;5307;42.548;22.968;2023-01-29T15:46:14;18.55;;;9.43;;
10517;SDS011;5307;42.548;22.968;2023-01-29T15:48:46;23.63;;;12.98;;
10517;SDS011;5307;42.548;22.968;2023-01-29T15:51:15;25.95;;;12.88;;
10517;SDS011;5307;42.548;22.968;2023-01-29T15:53:43;12.15;;;6.32;;
10517;SDS011;5307;42.548;22.968;2023-01-29T15:56:14;16.63;;;8.73;;
10517;SDS011;5307;42.548;22.968;2023-01-29T15:58:45;19.85;;;10.68;;
10517;SDS011;5307;42.548;22.968;2023-01-29T16:01:15;16.70;;;8.65;;
10517;SDS011;5307;42.548;22.968;2023-01-29T16:03:42;24.88;;;13.35;;
10517;SDS011;5307;42.548;22.968;2023-01-29T16:06:10;14.25;;;7.47;;